Salt River (Missouri), New London (05508000)

StateMissouriCurrentUnknown (21 cfs)
RiverSalt RiverFlood - The river is flooding. Obstacles can be treacherous or deadly. The river should be avoided at this stage for casual trips and definitely for the inexperienced. Trips should be attempted only with protective gear and equipment.Flood(none)
Updated2019-10-14 2:30 (21 minutes ago)High - The river is high and potentially dangerous, especially for the young and / or inexperienced. Normal stream obstacles are sometimes difficult to navigate. Extended distances can be attempted, but canoe travel may not be advisable.High7000
Discharge21 cfs (median: 91 cfs)Good - Conditions are ideal for a canoe or kayak. Boats typically will drag on fewer than one-quarter of riffles, if at all, and portages are unnecessary or rare. Normal float lengths can be attempted without a problem.Good1300
Height2.14 feetLow - River is low but can still be floated. Some riffles are okay but most come with significant dragging and might need a portage. Float lengths should be reduced to accommodate low flow, dragging, and portages.Low100
TrendSteady (falling over 24 hours)Poor - River is too low to float comfortably. Most or all riffles will drag or must be portaged and some obstacles (such as slick shelf rock) cause undue problems. Avoid the river at this stage for casual paddling trips.Poor(none)
USGSExternal icon USGS Site for New London (05508000)LocationExternal icon Google Maps

Trending Data

Plot Image
ObservationHeightDischargeMaximum
Discharge
Minimum
Discharge
Mean
Discharge
P05P10P20P25P50
(Median)
P75P80P90P95
2019-10-14 02:30 2.14 21 11700 (1994) 12 (1980) 1150 15 37 48 57 91 1180 1940 4910 6320
2019-10-14 02:00 2.14 21 11700 (1994) 12 (1980) 1150 15 37 48 57 91 1180 1940 4910 6320
2019-10-14 01:30 2.14 21 11700 (1994) 12 (1980) 1150 15 37 48 57 91 1180 1940 4910 6320
2019-10-14 01:00 2.15 22 11700 (1994) 12 (1980) 1150 15 37 48 57 91 1180 1940 4910 6320
2019-10-14 00:30 2.15 22 11700 (1994) 12 (1980) 1150 15 37 48 57 91 1180 1940 4910 6320
2019-10-14 00:00 2.15 22 11700 (1994) 12 (1980) 1150 15 37 48 57 91 1180 1940 4910 6320
2019-10-13 23:30 2.16 23 11700 (1994) 11 (1980) 1020 16 43 60 60 80 720 1640 4140 5130
2019-10-13 23:00 2.16 23 11700 (1994) 11 (1980) 1020 16 43 60 60 80 720 1640 4140 5130
2019-10-13 22:30 2.16 23 11700 (1994) 11 (1980) 1020 16 43 60 60 80 720 1640 4140 5130
2019-10-13 22:00 2.16 23 11700 (1994) 11 (1980) 1020 16 43 60 60 80 720 1640 4140 5130
2019-10-13 21:30 2.17 24 11700 (1994) 11 (1980) 1020 16 43 60 60 80 720 1640 4140 5130
2019-10-13 21:00 2.17 24 11700 (1994) 11 (1980) 1020 16 43 60 60 80 720 1640 4140 5130
2019-10-13 20:30 2.17 24 11700 (1994) 11 (1980) 1020 16 43 60 60 80 720 1640 4140 5130
2019-10-13 20:00 2.17 24 11700 (1994) 11 (1980) 1020 16 43 60 60 80 720 1640 4140 5130
2019-10-13 19:30 2.17 24 11700 (1994) 11 (1980) 1020 16 43 60 60 80 720 1640 4140 5130
2019-10-13 19:00 2.17 24 11700 (1994) 11 (1980) 1020 16 43 60 60 80 720 1640 4140 5130
2019-10-13 18:30 2.17 24 11700 (1994) 11 (1980) 1020 16 43 60 60 80 720 1640 4140 5130
2019-10-13 18:00 2.17 24 11700 (1994) 11 (1980) 1020 16 43 60 60 80 720 1640 4140 5130
2019-10-13 17:30 2.18 25 11700 (1994) 11 (1980) 1020 16 43 60 60 80 720 1640 4140 5130
2019-10-13 17:00 2.18 25 11700 (1994) 11 (1980) 1020 16 43 60 60 80 720 1640 4140 5130
2019-10-13 16:30 2.19 26 11700 (1994) 11 (1980) 1020 16 43 60 60 80 720 1640 4140 5130
2019-10-13 16:00 2.19 26 11700 (1994) 11 (1980) 1020 16 43 60 60 80 720 1640 4140 5130
2019-10-13 15:30 2.20 27 11700 (1994) 11 (1980) 1020 16 43 60 60 80 720 1640 4140 5130
2019-10-13 15:00 2.20 27 11700 (1994) 11 (1980) 1020 16 43 60 60 80 720 1640 4140 5130
2019-10-13 14:30 2.21 28 11700 (1994) 11 (1980) 1020 16 43 60 60 80 720 1640 4140 5130
2019-10-13 14:00 2.21 28 11700 (1994) 11 (1980) 1020 16 43 60 60 80 720 1640 4140 5130
2019-10-13 13:30 2.22 30 11700 (1994) 11 (1980) 1020 16 43 60 60 80 720 1640 4140 5130
2019-10-13 13:00 2.23 31 11700 (1994) 11 (1980) 1020 16 43 60 60 80 720 1640 4140 5130
2019-10-13 12:30 2.24 32 11700 (1994) 11 (1980) 1020 16 43 60 60 80 720 1640 4140 5130
2019-10-13 12:00 2.25 33 11700 (1994) 11 (1980) 1020 16 43 60 60 80 720 1640 4140 5130
2019-10-13 11:30 2.26 35 11700 (1994) 11 (1980) 1020 16 43 60 60 80 720 1640 4140 5130
2019-10-13 11:00 2.26 35 11700 (1994) 11 (1980) 1020 16 43 60 60 80 720 1640 4140 5130
2019-10-13 10:30 2.27 36 11700 (1994) 11 (1980) 1020 16 43 60 60 80 720 1640 4140 5130
2019-10-13 10:00 2.28 37 11700 (1994) 11 (1980) 1020 16 43 60 60 80 720 1640 4140 5130
2019-10-13 09:30 2.29 39 11700 (1994) 11 (1980) 1020 16 43 60 60 80 720 1640 4140 5130
2019-10-13 09:00 2.30 40 11700 (1994) 11 (1980) 1020 16 43 60 60 80 720 1640 4140 5130
2019-10-13 08:30 2.31 41 11700 (1994) 11 (1980) 1020 16 43 60 60 80 720 1640 4140 5130
2019-10-13 08:00 2.32 43 11700 (1994) 11 (1980) 1020 16 43 60 60 80 720 1640 4140 5130
2019-10-13 07:30 2.33 44 11700 (1994) 11 (1980) 1020 16 43 60 60 80 720 1640 4140 5130
2019-10-13 07:00 2.34 46 11700 (1994) 11 (1980) 1020 16 43 60 60 80 720 1640 4140 5130
2019-10-13 06:30 2.35 47 11700 (1994) 11 (1980) 1020 16 43 60 60 80 720 1640 4140 5130
2019-10-13 06:00 2.36 49 11700 (1994) 11 (1980) 1020 16 43 60 60 80 720 1640 4140 5130
2019-10-13 05:30 2.38 52 11700 (1994) 11 (1980) 1020 16 43 60 60 80 720 1640 4140 5130
2019-10-13 05:00 2.39 53 11700 (1994) 11 (1980) 1020 16 43 60 60 80 720 1640 4140 5130
2019-10-13 04:30 2.41 56 11700 (1994) 11 (1980) 1020 16 43 60 60 80 720 1640 4140 5130
2019-10-13 04:00 2.43 60 11700 (1994) 11 (1980) 1020 16 43 60 60 80 720 1640 4140 5130
2019-10-13 03:30 2.44 62 11700 (1994) 11 (1980) 1020 16 43 60 60 80 720 1640 4140 5130
2019-10-13 03:00 2.46 65 11700 (1994) 11 (1980) 1020 16 43 60 60 80 720 1640 4140 5130
2019-10-13 02:30 2.48 69 11700 (1994) 11 (1980) 1020 16 43 60 60 80 720 1640 4140 5130
2019-10-13 02:00 2.50 72 11700 (1994) 11 (1980) 1020 16 43 60 60 80 720 1640 4140 5130
2019-10-13 01:30 2.52 76 11700 (1994) 11 (1980) 1020 16 43 60 60 80 720 1640 4140 5130
2019-10-13 01:00 2.54 80 11700 (1994) 11 (1980) 1020 16 43 60 60 80 720 1640 4140 5130
2019-10-13 00:30 2.57 86 11700 (1994) 11 (1980) 1020 16 43 60 60 80 720 1640 4140 5130
2019-10-13 00:00 2.59 90 11700 (1994) 11 (1980) 1020 16 43 60 60 80 720 1640 4140 5130
2019-10-12 23:30 2.61 95 11600 (1994) 11 (1980) 1160 17 45 58 66 85 550 1590 4200 9050
2019-10-12 23:00 2.64 101 11600 (1994) 11 (1980) 1160 17 45 58 66 85 550 1590 4200 9050
2019-10-12 22:30 2.66 106 11600 (1994) 11 (1980) 1160 17 45 58 66 85 550 1590 4200 9050
2019-10-12 22:00 2.69 113 11600 (1994) 11 (1980) 1160 17 45 58 66 85 550 1590 4200 9050
2019-10-12 21:30 2.72 120 11600 (1994) 11 (1980) 1160 17 45 58 66 85 550 1590 4200 9050
2019-10-12 21:00 2.74 125 11600 (1994) 11 (1980) 1160 17 45 58 66 85 550 1590 4200 9050
2019-10-12 20:30 2.77 133 11600 (1994) 11 (1980) 1160 17 45 58 66 85 550 1590 4200 9050
2019-10-12 20:00 2.80 141 11600 (1994) 11 (1980) 1160 17 45 58 66 85 550 1590 4200 9050
2019-10-12 19:30 2.83 149 11600 (1994) 11 (1980) 1160 17 45 58 66 85 550 1590 4200 9050
2019-10-12 19:00 2.86 158 11600 (1994) 11 (1980) 1160 17 45 58 66 85 550 1590 4200 9050
2019-10-12 18:30 2.90 170 11600 (1994) 11 (1980) 1160 17 45 58 66 85 550 1590 4200 9050
2019-10-12 18:00 2.93 179 11600 (1994) 11 (1980) 1160 17 45 58 66 85 550 1590 4200 9050
2019-10-12 17:30 2.96 188 11600 (1994) 11 (1980) 1160 17 45 58 66 85 550 1590 4200 9050
2019-10-12 17:00 2.99 198 11600 (1994) 11 (1980) 1160 17 45 58 66 85 550 1590 4200 9050
2019-10-12 16:30 3.03 211 11600 (1994) 11 (1980) 1160 17 45 58 66 85 550 1590 4200 9050
2019-10-12 16:00 3.06 221 11600 (1994) 11 (1980) 1160 17 45 58 66 85 550 1590 4200 9050
2019-10-12 15:30 3.09 232 11600 (1994) 11 (1980) 1160 17 45 58 66 85 550 1590 4200 9050
2019-10-12 15:00 3.12 243 11600 (1994) 11 (1980) 1160 17 45 58 66 85 550 1590 4200 9050
2019-10-12 14:30 3.15 254 11600 (1994) 11 (1980) 1160 17 45 58 66 85 550 1590 4200 9050
2019-10-12 14:00 3.18 265 11600 (1994) 11 (1980) 1160 17 45 58 66 85 550 1590 4200 9050
2019-10-12 13:30 3.20 273 11600 (1994) 11 (1980) 1160 17 45 58 66 85 550 1590 4200 9050
2019-10-12 13:00 3.22 281 11600 (1994) 11 (1980) 1160 17 45 58 66 85 550 1590 4200 9050
2019-10-12 12:30 3.22 281 11600 (1994) 11 (1980) 1160 17 45 58 66 85 550 1590 4200 9050
2019-10-12 12:00 3.21 277 11600 (1994) 11 (1980) 1160 17 45 58 66 85 550 1590 4200 9050
2019-10-12 11:30 3.19 269 11600 (1994) 11 (1980) 1160 17 45 58 66 85 550 1590 4200 9050
2019-10-12 11:00 3.15 254 11600 (1994) 11 (1980) 1160 17 45 58 66 85 550 1590 4200 9050
2019-10-12 10:30 3.10 236 11600 (1994) 11 (1980) 1160 17 45 58 66 85 550 1590 4200 9050
2019-10-12 10:00 3.02 208 11600 (1994) 11 (1980) 1160 17 45 58 66 85 550 1590 4200 9050
2019-10-12 09:30 2.93 179 11600 (1994) 11 (1980) 1160 17 45 58 66 85 550 1590 4200 9050
2019-10-12 09:00 2.78 136 11600 (1994) 11 (1980) 1160 17 45 58 66 85 550 1590 4200 9050
2019-10-12 08:30 2.61 95 11600 (1994) 11 (1980) 1160 17 45 58 66 85 550 1590 4200 9050
2019-10-12 08:00 2.44 62 11600 (1994) 11 (1980) 1160 17 45 58 66 85 550 1590 4200 9050
2019-10-12 07:30 2.30 40 11600 (1994) 11 (1980) 1160 17 45 58 66 85 550 1590 4200 9050
2019-10-12 07:00 2.20 27 11600 (1994) 11 (1980) 1160 17 45 58 66 85 550 1590 4200 9050
2019-10-12 06:30 2.17 24 11600 (1994) 11 (1980) 1160 17 45 58 66 85 550 1590 4200 9050
2019-10-12 06:00 2.16 23 11600 (1994) 11 (1980) 1160 17 45 58 66 85 550 1590 4200 9050
2019-10-12 05:30 2.16 23 11600 (1994) 11 (1980) 1160 17 45 58 66 85 550 1590 4200 9050
2019-10-12 05:00 2.16 23 11600 (1994) 11 (1980) 1160 17 45 58 66 85 550 1590 4200 9050
2019-10-12 04:30 2.16 23 11600 (1994) 11 (1980) 1160 17 45 58 66 85 550 1590 4200 9050
2019-10-12 04:00 2.17 24 11600 (1994) 11 (1980) 1160 17 45 58 66 85 550 1590 4200 9050
2019-10-12 03:30 2.17 24 11600 (1994) 11 (1980) 1160 17 45 58 66 85 550 1590 4200 9050
2019-10-12 03:00 2.17 24 11600 (1994) 11 (1980) 1160 17 45 58 66 85 550 1590 4200 9050
2019-10-12 02:30 2.18 25 11600 (1994) 11 (1980) 1160 17 45 58 66 85 550 1590 4200 9050
2019-10-12 02:00 2.18 25 11600 (1994) 11 (1980) 1160 17 45 58 66 85 550 1590 4200 9050
2019-10-12 01:30 2.18 25 11600 (1994) 11 (1980) 1160 17 45 58 66 85 550 1590 4200 9050
2019-10-12 01:00 2.18 25 11600 (1994) 11 (1980) 1160 17 45 58 66 85 550 1590 4200 9050
2019-10-12 00:30 2.19 26 11600 (1994) 11 (1980) 1160 17 45 58 66 85 550 1590 4200 9050
2019-10-12 00:00 2.19 26 11600 (1994) 11 (1980) 1160 17 45 58 66 85 550 1590 4200 9050
2019-10-11 23:30 2.20 27 11600 (1994) 11 (1980) 1200 18 46 60 64 89 1380 2130 4680 6150
2019-10-11 23:00 2.20 27 11600 (1994) 11 (1980) 1200 18 46 60 64 89 1380 2130 4680 6150
2019-10-11 22:30 2.21 28 11600 (1994) 11 (1980) 1200 18 46 60 64 89 1380 2130 4680 6150
2019-10-11 22:00 2.21 28 11600 (1994) 11 (1980) 1200 18 46 60 64 89 1380 2130 4680 6150
2019-10-11 21:30 2.22 30 11600 (1994) 11 (1980) 1200 18 46 60 64 89 1380 2130 4680 6150
2019-10-11 21:00 2.22 30 11600 (1994) 11 (1980) 1200 18 46 60 64 89 1380 2130 4680 6150
2019-10-11 20:30 2.23 31 11600 (1994) 11 (1980) 1200 18 46 60 64 89 1380 2130 4680 6150
2019-10-11 20:00 2.24 32 11600 (1994) 11 (1980) 1200 18 46 60 64 89 1380 2130 4680 6150
2019-10-11 19:30 2.25 33 11600 (1994) 11 (1980) 1200 18 46 60 64 89 1380 2130 4680 6150
2019-10-11 19:00 2.26 35 11600 (1994) 11 (1980) 1200 18 46 60 64 89 1380 2130 4680 6150
2019-10-11 18:30 2.27 36 11600 (1994) 11 (1980) 1200 18 46 60 64 89 1380 2130 4680 6150
2019-10-11 18:00 2.28 37 11600 (1994) 11 (1980) 1200 18 46 60 64 89 1380 2130 4680 6150
2019-10-11 17:30 2.29 39 11600 (1994) 11 (1980) 1200 18 46 60 64 89 1380 2130 4680 6150
2019-10-11 17:00 2.29 39 11600 (1994) 11 (1980) 1200 18 46 60 64 89 1380 2130 4680 6150
2019-10-11 16:30 2.31 41 11600 (1994) 11 (1980) 1200 18 46 60 64 89 1380 2130 4680 6150
2019-10-11 16:00 2.32 43 11600 (1994) 11 (1980) 1200 18 46 60 64 89 1380 2130 4680 6150
2019-10-11 15:30 2.33 44 11600 (1994) 11 (1980) 1200 18 46 60 64 89 1380 2130 4680 6150
2019-10-11 15:00 2.35 47 11600 (1994) 11 (1980) 1200 18 46 60 64 89 1380 2130 4680 6150
2019-10-11 14:30 2.36 49 11600 (1994) 11 (1980) 1200 18 46 60 64 89 1380 2130 4680 6150
2019-10-11 14:00 2.38 52 11600 (1994) 11 (1980) 1200 18 46 60 64 89 1380 2130 4680 6150
2019-10-11 13:30 2.39 53 11600 (1994) 11 (1980) 1200 18 46 60 64 89 1380 2130 4680 6150
2019-10-11 13:00 2.40 55 11600 (1994) 11 (1980) 1200 18 46 60 64 89 1380 2130 4680 6150
2019-10-11 12:30 2.42 58 11600 (1994) 11 (1980) 1200 18 46 60 64 89 1380 2130 4680 6150
2019-10-11 12:00 2.43 60 11600 (1994) 11 (1980) 1200 18 46 60 64 89 1380 2130 4680 6150
2019-10-11 11:30 2.45 63 11600 (1994) 11 (1980) 1200 18 46 60 64 89 1380 2130 4680 6150
2019-10-11 11:00 2.47 67 11600 (1994) 11 (1980) 1200 18 46 60 64 89 1380 2130 4680 6150
2019-10-11 10:30 2.49 70 11600 (1994) 11 (1980) 1200 18 46 60 64 89 1380 2130 4680 6150
2019-10-11 10:00 2.51 74 11600 (1994) 11 (1980) 1200 18 46 60 64 89 1380 2130 4680 6150
2019-10-11 09:30 2.53 78 11600 (1994) 11 (1980) 1200 18 46 60 64 89 1380 2130 4680 6150
2019-10-11 09:00 2.55 82 11600 (1994) 11 (1980) 1200 18 46 60 64 89 1380 2130 4680 6150
2019-10-11 08:30 2.57 86 11600 (1994) 11 (1980) 1200 18 46 60 64 89 1380 2130 4680 6150
2019-10-11 08:00 2.60 92 11600 (1994) 11 (1980) 1200 18 46 60 64 89 1380 2130 4680 6150
2019-10-11 07:30 2.62 97 11600 (1994) 11 (1980) 1200 18 46 60 64 89 1380 2130 4680 6150
2019-10-11 07:00 2.65 104 11600 (1994) 11 (1980) 1200 18 46 60 64 89 1380 2130 4680 6150
2019-10-11 06:30 2.67 108 11600 (1994) 11 (1980) 1200 18 46 60 64 89 1380 2130 4680 6150
2019-10-11 06:00 2.70 115 11600 (1994) 11 (1980) 1200 18 46 60 64 89 1380 2130 4680 6150
2019-10-11 05:30 2.73 123 11600 (1994) 11 (1980) 1200 18 46 60 64 89 1380 2130 4680 6150
2019-10-11 05:00 2.76 130 11600 (1994) 11 (1980) 1200 18 46 60 64 89 1380 2130 4680 6150
2019-10-11 04:30 2.80 141 11600 (1994) 11 (1980) 1200 18 46 60 64 89 1380 2130 4680 6150
2019-10-11 04:00 2.83 149 11600 (1994) 11 (1980) 1200 18 46 60 64 89 1380 2130 4680 6150
2019-10-11 03:30 2.86 158 11600 (1994) 11 (1980) 1200 18 46 60 64 89 1380 2130 4680 6150
2019-10-11 03:00 2.90 170 11600 (1994) 11 (1980) 1200 18 46 60 64 89 1380 2130 4680 6150
2019-10-11 02:30 2.94 182 11600 (1994) 11 (1980) 1200 18 46 60 64 89 1380 2130 4680 6150
2019-10-11 02:00 2.97 191 11600 (1994) 11 (1980) 1200 18 46 60 64 89 1380 2130 4680 6150
2019-10-11 01:30 3.02 208 11600 (1994) 11 (1980) 1200 18 46 60 64 89 1380 2130 4680 6150
2019-10-11 01:00 3.06 221 11600 (1994) 11 (1980) 1200 18 46 60 64 89 1380 2130 4680 6150
2019-10-11 00:30 3.10 236 11600 (1994) 11 (1980) 1200 18 46 60 64 89 1380 2130 4680 6150
2019-10-11 00:00 3.15 254 11600 (1994) 11 (1980) 1200 18 46 60 64 89 1380 2130 4680 6150
2019-10-10 23:30 3.20 273 11700 (1994) 11 (1980) 1170 19 50 64 66 90 1200 1460 4430 9410
2019-10-10 23:00 3.24 289 11700 (1994) 11 (1980) 1170 19 50 64 66 90 1200 1460 4430 9410
2019-10-10 22:30 3.29 309 11700 (1994) 11 (1980) 1170 19 50 64 66 90 1200 1460 4430 9410
2019-10-10 22:00 3.34 331 11700 (1994) 11 (1980) 1170 19 50 64 66 90 1200 1460 4430 9410
2019-10-10 21:30 3.40 357 11700 (1994) 11 (1980) 1170 19 50 64 66 90 1200 1460 4430 9410
2019-10-10 21:00 3.45 380 11700 (1994) 11 (1980) 1170 19 50 64 66 90 1200 1460 4430 9410
2019-10-10 20:30 3.48 394 11700 (1994) 11 (1980) 1170 19 50 64 66 90 1200 1460 4430 9410
2019-10-10 20:00 3.57 439 11700 (1994) 11 (1980) 1170 19 50 64 66 90 1200 1460 4430 9410
2019-10-10 19:30 3.60 454 11700 (1994) 11 (1980) 1170 19 50 64 66 90 1200 1460 4430 9410
2019-10-10 19:00 3.69 502 11700 (1994) 11 (1980) 1170 19 50 64 66 90 1200 1460 4430 9410
2019-10-10 18:30 3.73 524 11700 (1994) 11 (1980) 1170 19 50 64 66 90 1200 1460 4430 9410
2019-10-10 18:00 3.81 569 11700 (1994) 11 (1980) 1170 19 50 64 66 90 1200 1460 4430 9410
2019-10-10 17:30 3.85 593 11700 (1994) 11 (1980) 1170 19 50 64 66 90 1200 1460 4430 9410
2019-10-10 17:00 3.94 648 11700 (1994) 11 (1980) 1170 19 50 64 66 90 1200 1460 4430 9410
2019-10-10 16:30 3.99 680 11700 (1994) 11 (1980) 1170 19 50 64 66 90 1200 1460 4430 9410
2019-10-10 16:00 4.04 712 11700 (1994) 11 (1980) 1170 19 50 64 66 90 1200 1460 4430 9410
2019-10-10 15:30 4.08 739 11700 (1994) 11 (1980) 1170 19 50 64 66 90 1200 1460 4430 9410
2019-10-10 15:00 4.12 766 11700 (1994) 11 (1980) 1170 19 50 64 66 90 1200 1460 4430 9410
2019-10-10 14:30 4.14 780 11700 (1994) 11 (1980) 1170 19 50 64 66 90 1200 1460 4430 9410
2019-10-10 14:00 4.17 801 11700 (1994) 11 (1980) 1170 19 50 64 66 90 1200 1460 4430 9410
2019-10-10 13:30 4.18 808 11700 (1994) 11 (1980) 1170 19 50 64 66 90 1200 1460 4430 9410
2019-10-10 13:00 4.20 822 11700 (1994) 11 (1980) 1170 19 50 64 66 90 1200 1460 4430 9410
2019-10-10 12:30 4.22 836 11700 (1994) 11 (1980) 1170 19 50 64 66 90 1200 1460 4430 9410
2019-10-10 12:00 4.24 851 11700 (1994) 11 (1980) 1170 19 50 64 66 90 1200 1460 4430 9410
2019-10-10 11:30 4.26 865 11700 (1994) 11 (1980) 1170 19 50 64 66 90 1200 1460 4430 9410
2019-10-10 11:00 4.28 880 11700 (1994) 11 (1980) 1170 19 50 64 66 90 1200 1460 4430 9410
2019-10-10 10:30 4.29 887 11700 (1994) 11 (1980) 1170 19 50 64 66 90 1200 1460 4430 9410
2019-10-10 10:00 4.32 910 11700 (1994) 11 (1980) 1170 19 50 64 66 90 1200 1460 4430 9410
2019-10-10 09:30 4.36 940 11700 (1994) 11 (1980) 1170 19 50 64 66 90 1200 1460 4430 9410
2019-10-10 09:00 4.39 964 11700 (1994) 11 (1980) 1170 19 50 64 66 90 1200 1460 4430 9410
2019-10-10 08:30 4.44 1000 11700 (1994) 11 (1980) 1170 19 50 64 66 90 1200 1460 4430 9410
2019-10-10 08:00 4.48 1040 11700 (1994) 11 (1980) 1170 19 50 64 66 90 1200 1460 4430 9410
2019-10-10 07:30 4.53 1080 11700 (1994) 11 (1980) 1170 19 50 64 66 90 1200 1460 4430 9410
2019-10-10 07:00 4.58 1120 11700 (1994) 11 (1980) 1170 19 50 64 66 90 1200 1460 4430 9410
2019-10-10 06:30 4.63 1160 11700 (1994) 11 (1980) 1170 19 50 64 66 90 1200 1460 4430 9410
2019-10-10 06:00 4.67 1200 11700 (1994) 11 (1980) 1170 19 50 64 66 90 1200 1460 4430 9410
2019-10-10 05:30 4.70 1220 11700 (1994) 11 (1980) 1170 19 50 64 66 90 1200 1460 4430 9410
2019-10-10 05:00 4.71 1230 11700 (1994) 11 (1980) 1170 19 50 64 66 90 1200 1460 4430 9410
2019-10-10 04:30 4.70 1220 11700 (1994) 11 (1980) 1170 19 50 64 66 90 1200 1460 4430 9410
2019-10-10 04:00 4.67 1200 11700 (1994) 11 (1980) 1170 19 50 64 66 90 1200 1460 4430 9410
2019-10-10 03:30 4.59 1130 11700 (1994) 11 (1980) 1170 19 50 64 66 90 1200 1460 4430 9410
2019-10-10 03:00 4.49 1040 11700 (1994) 11 (1980) 1170 19 50 64 66 90 1200 1460 4430 9410
2019-10-10 02:30 4.29 887 11700 (1994) 11 (1980) 1170 19 50 64 66 90 1200 1460 4430 9410
2019-10-10 02:00 4.01 692 11700 (1994) 11 (1980) 1170 19 50 64 66 90 1200 1460 4430 9410
2019-10-10 01:30 3.65 480 11700 (1994) 11 (1980) 1170 19 50 64 66 90 1200 1460 4430 9410
2019-10-10 01:00 3.22 281 11700 (1994) 11 (1980) 1170 19 50 64 66 90 1200 1460 4430 9410
2019-10-10 00:30 2.83 149 11700 (1994) 11 (1980) 1170 19 50 64 66 90 1200 1460 4430 9410
2019-10-10 00:00 2.59 90 11700 (1994) 11 (1980) 1170 19 50 64 66 90 1200 1460 4430 9410
2019-10-09 23:30 2.50 72 11100 (1994) 11 (1980) 1120 20 44 55 58 79 1200 1740 2900 10700
2019-10-09 23:00 2.50 72 11100 (1994) 11 (1980) 1120 20 44 55 58 79 1200 1740 2900 10700
2019-10-09 22:30 2.51 74 11100 (1994) 11 (1980) 1120 20 44 55 58 79 1200 1740 2900 10700
2019-10-09 22:00 2.53 78 11100 (1994) 11 (1980) 1120 20 44 55 58 79 1200 1740 2900 10700
2019-10-09 21:30 2.54 80 11100 (1994) 11 (1980) 1120 20 44 55 58 79 1200 1740 2900 10700
2019-10-09 21:00 2.56 84 11100 (1994) 11 (1980) 1120 20 44 55 58 79 1200 1740 2900 10700
2019-10-09 20:30 2.58 88 11100 (1994) 11 (1980) 1120 20 44 55 58 79 1200 1740 2900 10700
2019-10-09 20:00 2.60 92 11100 (1994) 11 (1980) 1120 20 44 55 58 79 1200 1740 2900 10700
2019-10-09 19:30 2.62 97 11100 (1994) 11 (1980) 1120 20 44 55 58 79 1200 1740 2900 10700
2019-10-09 19:00 2.64 101 11100 (1994) 11 (1980) 1120 20 44 55 58 79 1200 1740 2900 10700
2019-10-09 18:30 2.66 106 11100 (1994) 11 (1980) 1120 20 44 55 58 79 1200 1740 2900 10700
2019-10-09 18:00 2.68 111 11100 (1994) 11 (1980) 1120 20 44 55 58 79 1200 1740 2900 10700
2019-10-09 17:30 2.70 115 11100 (1994) 11 (1980) 1120 20 44 55 58 79 1200 1740 2900 10700
2019-10-09 17:00 2.72 120 11100 (1994) 11 (1980) 1120 20 44 55 58 79 1200 1740 2900 10700
2019-10-09 16:30 2.75 128 11100 (1994) 11 (1980) 1120 20 44 55 58 79 1200 1740 2900 10700
2019-10-09 16:00 2.77 133 11100 (1994) 11 (1980) 1120 20 44 55 58 79 1200 1740 2900 10700
2019-10-09 15:30 2.80 141 11100 (1994) 11 (1980) 1120 20 44 55 58 79 1200 1740 2900 10700
2019-10-09 15:00 2.83 149 11100 (1994) 11 (1980) 1120 20 44 55 58 79 1200 1740 2900 10700
2019-10-09 14:30 2.86 158 11100 (1994) 11 (1980) 1120 20 44 55 58 79 1200 1740 2900 10700
2019-10-09 14:00 2.88 164 11100 (1994) 11 (1980) 1120 20 44 55 58 79 1200 1740 2900 10700
2019-10-09 13:30 2.91 173 11100 (1994) 11 (1980) 1120 20 44 55 58 79 1200 1740 2900 10700
2019-10-09 13:00 2.94 182 11100 (1994) 11 (1980) 1120 20 44 55 58 79 1200 1740 2900 10700
2019-10-09 12:30 2.97 191 11100 (1994) 11 (1980) 1120 20 44 55 58 79 1200 1740 2900 10700
2019-10-09 12:00 3.01 204 11100 (1994) 11 (1980) 1120 20 44 55 58 79 1200 1740 2900 10700
2019-10-09 11:30 3.04 215 11100 (1994) 11 (1980) 1120 20 44 55 58 79 1200 1740 2900 10700
2019-10-09 11:00 3.07 225 11100 (1994) 11 (1980) 1120 20 44 55 58 79 1200 1740 2900 10700
2019-10-09 10:30 3.09 232 11100 (1994) 11 (1980) 1120 20 44 55 58 79 1200 1740 2900 10700
2019-10-09 10:00 3.11 239 11100 (1994) 11 (1980) 1120 20 44 55 58 79 1200 1740 2900 10700
2019-10-09 09:30 3.12 243 11100 (1994) 11 (1980) 1120 20 44 55 58 79 1200 1740 2900 10700
2019-10-09 09:00 3.13 247 11100 (1994) 11 (1980) 1120 20 44 55 58 79 1200 1740 2900 10700
2019-10-09 08:30 3.13 247 11100 (1994) 11 (1980) 1120 20 44 55 58 79 1200 1740 2900 10700
2019-10-09 08:00 3.11 239 11100 (1994) 11 (1980) 1120 20 44 55 58 79 1200 1740 2900 10700
2019-10-09 07:30 3.08 228 11100 (1994) 11 (1980) 1120 20 44 55 58 79 1200 1740 2900 10700
2019-10-09 07:00 3.04 215 11100 (1994) 11 (1980) 1120 20 44 55 58 79 1200 1740 2900 10700
2019-10-09 06:30 2.98 195 11100 (1994) 11 (1980) 1120 20 44 55 58 79 1200 1740 2900 10700
2019-10-09 06:00 2.88 164 11100 (1994) 11 (1980) 1120 20 44 55 58 79 1200 1740 2900 10700
2019-10-09 05:30 2.78 136 11100 (1994) 11 (1980) 1120 20 44 55 58 79 1200 1740 2900 10700
2019-10-09 05:00 2.63 99 11100 (1994) 11 (1980) 1120 20 44 55 58 79 1200 1740 2900 10700
2019-10-09 04:30 2.45 63 11100 (1994) 11 (1980) 1120 20 44 55 58 79 1200 1740 2900 10700
2019-10-09 04:00 2.28 37 11100 (1994) 11 (1980) 1120 20 44 55 58 79 1200 1740 2900 10700
2019-10-09 03:30 2.16 23 11100 (1994) 11 (1980) 1120 20 44 55 58 79 1200 1740 2900 10700
2019-10-09 03:00 2.08 15 11100 (1994) 11 (1980) 1120 20 44 55 58 79 1200 1740 2900 10700
2019-10-09 02:30 2.07 14 11100 (1994) 11 (1980) 1120 20 44 55 58 79 1200 1740 2900 10700
2019-10-09 02:00 2.06 13 11100 (1994) 11 (1980) 1120 20 44 55 58 79 1200 1740 2900 10700
2019-10-09 01:30 2.06 13 11100 (1994) 11 (1980) 1120 20 44 55 58 79 1200 1740 2900 10700
2019-10-09 01:00 2.06 13 11100 (1994) 11 (1980) 1120 20 44 55 58 79 1200 1740 2900 10700
2019-10-09 00:30 2.06 13 11100 (1994) 11 (1980) 1120 20 44 55 58 79 1200 1740 2900 10700
2019-10-09 00:00 2.06 13 11100 (1994) 11 (1980) 1120 20 44 55 58 79 1200 1740 2900 10700
2019-10-08 23:30 2.06 13 12400 (2009) 11 (1980) 1440 20 30 58 67 85 1780 2600 3320 11100
2019-10-08 23:00 2.07 14 12400 (2009) 11 (1980) 1440 20 30 58 67 85 1780 2600 3320 11100
2019-10-08 22:30 2.06 13 12400 (2009) 11 (1980) 1440 20 30 58 67 85 1780 2600 3320 11100
2019-10-08 22:00 2.07 14 12400 (2009) 11 (1980) 1440 20 30 58 67 85 1780 2600 3320 11100
2019-10-08 21:30 2.07 14 12400 (2009) 11 (1980) 1440 20 30 58 67 85 1780 2600 3320 11100
2019-10-08 21:00 2.07 14 12400 (2009) 11 (1980) 1440 20 30 58 67 85 1780 2600 3320 11100
2019-10-08 20:30 2.07 14 12400 (2009) 11 (1980) 1440 20 30 58 67 85 1780 2600 3320 11100
2019-10-08 20:00 2.07 14 12400 (2009) 11 (1980) 1440 20 30 58 67 85 1780 2600 3320 11100
2019-10-08 19:30 2.06 13 12400 (2009) 11 (1980) 1440 20 30 58 67 85 1780 2600 3320 11100
2019-10-08 19:00 2.07 14 12400 (2009) 11 (1980) 1440 20 30 58 67 85 1780 2600 3320 11100
2019-10-08 18:30 2.06 13 12400 (2009) 11 (1980) 1440 20 30 58 67 85 1780 2600 3320 11100
2019-10-08 18:00 2.06 13 12400 (2009) 11 (1980) 1440 20 30 58 67 85 1780 2600 3320 11100
2019-10-08 17:30 2.06 13 12400 (2009) 11 (1980) 1440 20 30 58 67 85 1780 2600 3320 11100
2019-10-08 17:00 2.06 13 12400 (2009) 11 (1980) 1440 20 30 58 67 85 1780 2600 3320 11100
2019-10-08 16:30 2.06 13 12400 (2009) 11 (1980) 1440 20 30 58 67 85 1780 2600 3320 11100
2019-10-08 16:00 2.06 13 12400 (2009) 11 (1980) 1440 20 30 58 67 85 1780 2600 3320 11100
2019-10-08 15:30 2.06 13 12400 (2009) 11 (1980) 1440 20 30 58 67 85 1780 2600 3320 11100
2019-10-08 15:00 2.06 13 12400 (2009) 11 (1980) 1440 20 30 58 67 85 1780 2600 3320 11100
2019-10-08 14:30 2.07 14 12400 (2009) 11 (1980) 1440 20 30 58 67 85 1780 2600 3320 11100
2019-10-08 14:00 2.07 14 12400 (2009) 11 (1980) 1440 20 30 58 67 85 1780 2600 3320 11100
2019-10-08 13:30 2.07 14 12400 (2009) 11 (1980) 1440 20 30 58 67 85 1780 2600 3320 11100
2019-10-08 13:00 2.07 14 12400 (2009) 11 (1980) 1440 20 30 58 67 85 1780 2600 3320 11100
2019-10-08 12:30 2.07 14 12400 (2009) 11 (1980) 1440 20 30 58 67 85 1780 2600 3320 11100
2019-10-08 12:00 2.07 14 12400 (2009) 11 (1980) 1440 20 30 58 67 85 1780 2600 3320 11100
2019-10-08 11:30 2.08 15 12400 (2009) 11 (1980) 1440 20 30 58 67 85 1780 2600 3320 11100
2019-10-08 11:00 2.08 15 12400 (2009) 11 (1980) 1440 20 30 58 67 85 1780 2600 3320 11100
2019-10-08 10:30 2.08 15 12400 (2009) 11 (1980) 1440 20 30 58 67 85 1780 2600 3320 11100
2019-10-08 10:00 2.07 14 12400 (2009) 11 (1980) 1440 20 30 58 67 85 1780 2600 3320 11100
2019-10-08 09:30 2.07 14 12400 (2009) 11 (1980) 1440 20 30 58 67 85 1780 2600 3320 11100
2019-10-08 09:00 2.07 14 12400 (2009) 11 (1980) 1440 20 30 58 67 85 1780 2600 3320 11100
2019-10-08 08:30 2.07 14 12400 (2009) 11 (1980) 1440 20 30 58 67 85 1780 2600 3320 11100
2019-10-08 08:00 2.07 14 12400 (2009) 11 (1980) 1440 20 30 58 67 85 1780 2600 3320 11100
2019-10-08 07:30 2.07 14 12400 (2009) 11 (1980) 1440 20 30 58 67 85 1780 2600 3320 11100
2019-10-08 07:00 2.07 14 12400 (2009) 11 (1980) 1440 20 30 58 67 85 1780 2600 3320 11100
2019-10-08 06:30 2.07 14 12400 (2009) 11 (1980) 1440 20 30 58 67 85 1780 2600 3320 11100
2019-10-08 06:00 2.07 14 12400 (2009) 11 (1980) 1440 20 30 58 67 85 1780 2600 3320 11100
2019-10-08 05:30 2.08 15 12400 (2009) 11 (1980) 1440 20 30 58 67 85 1780 2600 3320 11100
2019-10-08 05:00 2.08 15 12400 (2009) 11 (1980) 1440 20 30 58 67 85 1780 2600 3320 11100
2019-10-08 04:30 2.07 14 12400 (2009) 11 (1980) 1440 20 30 58 67 85 1780 2600 3320 11100
2019-10-08 04:00 2.07 14 12400 (2009) 11 (1980) 1440 20 30 58 67 85 1780 2600 3320 11100
2019-10-08 03:30 2.08 15 12400 (2009) 11 (1980) 1440 20 30 58 67 85 1780 2600 3320 11100
2019-10-08 03:00 2.08 15 12400 (2009) 11 (1980) 1440 20 30 58 67 85 1780 2600 3320 11100
2019-10-08 02:30 2.08 15 12400 (2009) 11 (1980) 1440 20 30 58 67 85 1780 2600 3320 11100
2019-10-08 02:00 2.08 15 12400 (2009) 11 (1980) 1440 20 30 58 67 85 1780 2600 3320 11100
2019-10-08 01:30 2.08 15 12400 (2009) 11 (1980) 1440 20 30 58 67 85 1780 2600 3320 11100
2019-10-08 01:00 2.08 15 12400 (2009) 11 (1980) 1440 20 30 58 67 85 1780 2600 3320 11100
2019-10-08 00:30 2.08 15 12400 (2009) 11 (1980) 1440 20 30 58 67 85 1780 2600 3320 11100
2019-10-08 00:00 2.08 15 12400 (2009) 11 (1980) 1440 20 30 58 67 85 1780 2600 3320 11100
2019-10-07 23:30 2.08 15 12400 (2009) 12 (1980) 1340 22 31 52 61 94 891 1510 3940 11700
2019-10-07 23:00 2.08 15 12400 (2009) 12 (1980) 1340 22 31 52 61 94 891 1510 3940 11700
2019-10-07 22:30 2.09 16 12400 (2009) 12 (1980) 1340 22 31 52 61 94 891 1510 3940 11700
2019-10-07 22:00 2.09 16 12400 (2009) 12 (1980) 1340 22 31 52 61 94 891 1510 3940 11700
2019-10-07 21:30 2.09 16 12400 (2009) 12 (1980) 1340 22 31 52 61 94 891 1510 3940 11700
2019-10-07 21:00 2.09 16 12400 (2009) 12 (1980) 1340 22 31 52 61 94 891 1510 3940 11700
2019-10-07 20:30 2.09 16 12400 (2009) 12 (1980) 1340 22 31 52 61 94 891 1510 3940 11700
2019-10-07 20:00 2.09 16 12400 (2009) 12 (1980) 1340 22 31 52 61 94 891 1510 3940 11700
2019-10-07 19:30 2.08 15 12400 (2009) 12 (1980) 1340 22 31 52 61 94 891 1510 3940 11700
2019-10-07 19:00 2.08 15 12400 (2009) 12 (1980) 1340 22 31 52 61 94 891 1510 3940 11700
2019-10-07 18:30 2.08 15 12400 (2009) 12 (1980) 1340 22 31 52 61 94 891 1510 3940 11700
2019-10-07 18:00 2.08 15 12400 (2009) 12 (1980) 1340 22 31 52 61 94 891 1510 3940 11700
2019-10-07 17:30 2.08 15 12400 (2009) 12 (1980) 1340 22 31 52 61 94 891 1510 3940 11700
2019-10-07 17:00 2.08 15 12400 (2009) 12 (1980) 1340 22 31 52 61 94 891 1510 3940 11700
2019-10-07 16:30 2.08 15 12400 (2009) 12 (1980) 1340 22 31 52 61 94 891 1510 3940 11700
2019-10-07 16:00 2.09 16 12400 (2009) 12 (1980) 1340 22 31 52 61 94 891 1510 3940 11700
2019-10-07 15:30 2.09 16 12400 (2009) 12 (1980) 1340 22 31 52 61 94 891 1510 3940 11700
2019-10-07 15:00 2.09 16 12400 (2009) 12 (1980) 1340 22 31 52 61 94 891 1510 3940 11700
2019-10-07 14:30 2.09 16 12400 (2009) 12 (1980) 1340 22 31 52 61 94 891 1510 3940 11700
2019-10-07 14:00 2.09 16 12400 (2009) 12 (1980) 1340 22 31 52 61 94 891 1510 3940 11700
2019-10-07 13:30 2.09 16 12400 (2009) 12 (1980) 1340 22 31 52 61 94 891 1510 3940 11700
2019-10-07 13:00 2.09 16 12400 (2009) 12 (1980) 1340 22 31 52 61 94 891 1510 3940 11700
2019-10-07 12:30 2.09 16 12400 (2009) 12 (1980) 1340 22 31 52 61 94 891 1510 3940 11700
2019-10-07 12:00 2.09 16 12400 (2009) 12 (1980) 1340 22 31 52 61 94 891 1510 3940 11700
2019-10-07 11:30 2.09 16 12400 (2009) 12 (1980) 1340 22 31 52 61 94 891 1510 3940 11700
2019-10-07 11:00 2.10 17 12400 (2009) 12 (1980) 1340 22 31 52 61 94 891 1510 3940 11700
2019-10-07 10:30 2.10 17 12400 (2009) 12 (1980) 1340 22 31 52 61 94 891 1510 3940 11700
2019-10-07 10:00 2.09 16 12400 (2009) 12 (1980) 1340 22 31 52 61 94 891 1510 3940 11700
2019-10-07 09:30 2.09 16 12400 (2009) 12 (1980) 1340 22 31 52 61 94 891 1510 3940 11700
2019-10-07 09:00 2.09 16 12400 (2009) 12 (1980) 1340 22 31 52 61 94 891 1510 3940 11700
2019-10-07 08:30 2.09 16 12400 (2009) 12 (1980) 1340 22 31 52 61 94 891 1510 3940 11700
2019-10-07 08:00 2.09 16 12400 (2009) 12 (1980) 1340 22 31 52 61 94 891 1510 3940 11700
2019-10-07 07:30 2.09 16 12400 (2009) 12 (1980) 1340 22 31 52 61 94 891 1510 3940 11700
2019-10-07 07:00 2.09 16 12400 (2009) 12 (1980) 1340 22 31 52 61 94 891 1510 3940 11700
2019-10-07 06:30 2.09 16 12400 (2009) 12 (1980) 1340 22 31 52 61 94 891 1510 3940 11700
2019-10-07 06:00 2.09 16 12400 (2009) 12 (1980) 1340 22 31 52 61 94 891 1510 3940 11700
2019-10-07 05:30 2.09 16 12400 (2009) 12 (1980) 1340 22 31 52 61 94 891 1510 3940 11700
2019-10-07 05:00 2.09 16 12400 (2009) 12 (1980) 1340 22 31 52 61 94 891 1510 3940 11700
2019-10-07 04:30 2.10 17 12400 (2009) 12 (1980) 1340 22 31 52 61 94 891 1510 3940 11700
2019-10-07 04:00 2.10 17 12400 (2009) 12 (1980) 1340 22 31 52 61 94 891 1510 3940 11700
2019-10-07 03:30 2.10 17 12400 (2009) 12 (1980) 1340 22 31 52 61 94 891 1510 3940 11700
2019-10-07 03:00 2.10 17 12400 (2009) 12 (1980) 1340 22 31 52 61 94 891 1510 3940 11700
2019-10-07 02:30 2.10 17 12400 (2009) 12 (1980) 1340 22 31 52 61 94 891 1510 3940 11700
2019-10-07 02:00 2.10 17 12400 (2009) 12 (1980) 1340 22 31 52 61 94 891 1510 3940 11700
2019-10-07 01:30 2.11 18 12400 (2009) 12 (1980) 1340 22 31 52 61 94 891 1510 3940 11700
2019-10-07 01:00 2.10 17 12400 (2009) 12 (1980) 1340 22 31 52 61 94 891 1510 3940 11700
2019-10-07 00:30 2.11 18 12400 (2009) 12 (1980) 1340 22 31 52 61 94 891 1510 3940 11700
2019-10-07 00:00 2.11 18 12400 (2009) 12 (1980) 1340 22 31 52 61 94 891 1510 3940 11700

A total of 342 rows are displayed for years 1980 through 2018.

Trips for Salt River (Missouri), New London (05508000)

DateStartEndDistanceConditionDischargeHeightFishingDetails
Click for details2019-07-14 Indian Camp Bailey Bridge Total trip distance: 10.4 miles10.4 High 7720 9.73 None NoneNone Trantham, MeganTrantham, Megan No notes for this trip<i>No notes for this trip</i> USGS Gauge Data:
New London (05508000)
Discharge: 7720
Height: 9.73
<b>USGS Gauge Data:</b></br />New London (05508000)<br />Discharge: 7720<br />Height: 9.73
Source: TranthamSource: Trantham
Click for details2015-07-27 Bluff View Indian Camp Total trip distance: 18.7 miles18.7 High 7390 9.76 None NoneNone Edmond, Brian
Edmond, Julian
Grote, Chase
Luebrecht, Olivia
Storts, Amy Jo
Storts, Kaleb
Edmond, Brian; Edmond, Julian; Grote, Chase; Luebrecht, Olivia; Storts, Amy Jo; Storts, Kaleb
The water was flowing from the beginning of this trip. We made this distance in 6 1/2 hours with minimal stops for swimming and resting.The water was flowing from the beginning of this trip. We made this distance in 6 1/2 hours with minimal stops for swimming and resting. USGS Gauge Data:
New London (05508000)
Discharge: 7390
Height: 9.76
<b>USGS Gauge Data:</b></br />New London (05508000)<br />Discharge: 7390<br />Height: 9.76
Source: EdmondSource: Edmond
Click for details2014-07-28 Rt H Indian Camp Total trip distance: 18.7 miles12.3 Good 1200 4.46 None NoneNone Bufford, Anne Marie
Edmond, Brian
Grote, Bob
Grote, Hannah
Hays, Chloe
Bufford, Anne Marie; Edmond, Brian; Grote, Bob; Grote, Hannah; Hays, Chloe
Although we had normal water much of the afternoon, the pulse of water from power generation helped us through the latter part of the day.Although we had normal water much of the afternoon, the pulse of water from power generation helped us through the latter part of the day. USGS Gauge Data:
New London (05508000)
Discharge: 1200
Height: 4.46
<b>USGS Gauge Data:</b></br />New London (05508000)<br />Discharge: 1200<br />Height: 4.46
Source: EdmondSource: Edmond
Click for details2016-06-10 Shanks Mississippi River Total trip distance: 6.2 miles4.6 Good 39 2.53 Poor NoneNone Edmond, Brian
Edmond, Julian
Grote, Camryn
Grote, Chase
Houseworth, Owen
Houseworth, Wyatt
Storts, Amy Jo
Edmond, Brian; Edmond, Julian; Grote, Camryn; Grote, Chase; Houseworth, Owen; Houseworth, Wyatt; Storts, Amy Jo
There was no current on the Salt River at all. At times, we were paddling against the wind. If we had a straight tail wind, or there was a flow, the trip would have been much better.There was no current on the Salt River at all. At times, we were paddling against the wind. If we had a straight tail wind, or there was a flow, the trip would have been much better. USGS Gauge Data:
New London (05508000)
Discharge: 39
Height: 2.53
<b>USGS Gauge Data:</b></br />New London (05508000)<br />Discharge: 39<br />Height: 2.53
Source: EdmondSource: Edmond

A total of 4 rows are displayed.

Trip Summary for Salt River (Missouri), New London (05508000)

Miles46
Trips4
People14
Dates4
Years4
Months2
Rows4
Sources2

Condition Descriptions

Fishing Conditions

Fish Species

Notes

Classic Trip List

The classic River Trips application is still available for use. It is updated with the new system using a data retrofit. It is no longer maintained. The original River Trips application is no longer updated (as of 1 Dec 2016) but can be checked for errors or for the condition of the data before it was converted to the new system.